createdAt,value
2019-04-20T00:00:56.122Z,60.40
2019-04-20T00:03:32.251Z,60.12
2019-04-20T00:05:57.207Z,60.38
2019-04-20T00:08:31.177Z,60.63
2019-04-20T00:11:07.354Z,60.92
2019-04-20T00:13:40.711Z,61.32
2019-04-20T00:16:00.027Z,61.50
2019-04-20T00:18:34.507Z,61.98
2019-04-20T00:21:19.109Z,61.98
2019-04-20T00:23:51.805Z,62.42
2019-04-20T00:27:20.697Z,62.50
2019-04-20T00:29:38.036Z,63.03
2019-04-20T00:32:01.613Z,63.55
2019-04-20T00:34:26.465Z,63.55
2019-04-20T00:36:49.869Z,64.26
2019-04-20T00:39:20.233Z,63.54
2019-04-20T00:41:57.134Z,64.48
2019-04-20T00:44:27.321Z,64.58
2019-04-20T00:47:04.912Z,65.19
2019-04-20T00:49:38.803Z,65.48
2019-04-20T00:52:24.142Z,65.80
2019-04-20T00:54:26.380Z,66.01
2019-04-20T00:57:05.781Z,66.15
2019-04-20T00:59:42.436Z,66.33
2019-04-20T01:02:13.185Z,66.82
2019-04-20T01:04:47.746Z,67.26
2019-04-20T01:07:38.612Z,68.17
2019-04-20T01:10:05.436Z,68.40
2019-04-20T01:12:37.418Z,68.40
2019-04-20T01:15:11.094Z,68.68
2019-04-20T01:17:41.749Z,68.68
2019-04-20T01:20:09.702Z,69.25
2019-04-20T01:22:44.623Z,69.25
2019-04-20T01:25:20.685Z,69.94
2019-04-20T01:28:02.198Z,70.10
2019-04-20T01:30:20.922Z,70.51
2019-04-20T01:33:12.739Z,70.76
2019-04-20T01:35:31.945Z,70.69
2019-04-20T01:38:00.814Z,70.84
2019-04-20T01:40:16.972Z,70.84
2019-04-20T01:42:46.779Z,70.88
2019-04-20T01:45:25.215Z,71.97
2019-04-20T01:47:51.463Z,71.89
2019-04-20T01:50:22.694Z,72.45
2019-04-20T01:53:03.058Z,72.44
2019-04-20T01:55:43.649Z,72.44
2019-04-20T01:58:36.281Z,72.58
2019-04-20T02:01:14.965Z,72.79
2019-04-20T02:03:48.553Z,73.03
2019-04-20T02:06:18.805Z,73.08
2019-04-20T02:08:51.710Z,73.21
2019-04-20T02:11:25.462Z,73.22
2019-04-20T02:13:55.150Z,73.80
2019-04-20T02:16:28.811Z,73.89
2019-04-20T02:19:10.821Z,73.44
2019-04-20T02:21:37.917Z,74.00
2019-04-20T02:23:57.770Z,74.25
2019-04-20T02:26:23.991Z,74.56
2019-04-20T02:29:18.956Z,75.29
2019-04-20T02:32:06.470Z,75.09
2019-04-20T02:42:08.802Z,76.81
2019-04-20T02:44:42.279Z,76.14
2019-04-20T02:47:16.443Z,76.14
2019-04-20T02:57:10.736Z,76.25
2019-04-20T03:02:00.325Z,76.95
2019-04-20T03:04:23.121Z,77.77
2019-04-20T03:06:59.769Z,77.07
2019-04-20T03:09:36.834Z,77.74
2019-04-20T03:12:08.023Z,77.69
2019-04-20T03:14:32.424Z,77.69
2019-04-20T03:17:12.844Z,78.18
2019-04-20T03:19:31.426Z,78.18
2019-04-20T03:22:09.119Z,78.91
2019-04-20T03:24:47.013Z,78.46
2019-04-20T03:27:08.278Z,79.30
2019-04-20T03:30:07.802Z,79.74
2019-04-20T03:35:24.964Z,80.76
2019-04-20T03:37:44.181Z,80.58
2019-04-20T03:40:07.349Z,80.49
2019-04-20T03:42:20.094Z,80.49
2019-04-20T03:44:57.943Z,80.49
2019-04-20T03:47:30.413Z,81.30
2019-04-20T03:50:14.728Z,81.15
2019-04-20T03:52:49.248Z,81.50
2019-04-20T03:55:30.281Z,81.45
2019-04-20T03:58:18.584Z,82.13
2019-04-20T04:01:31.452Z,82.16
2019-04-20T04:04:06.648Z,82.41
2019-04-20T04:06:26.399Z,83.22
2019-04-20T04:09:02.743Z,81.96
2019-04-20T04:11:34.846Z,81.59
2019-04-20T04:13:48.400Z,81.39
2019-04-20T04:16:21.587Z,81.39
2019-04-20T04:18:59.275Z,82.63
2019-04-20T04:21:33.552Z,82.90
2019-04-20T04:24:07.171Z,82.73
2019-04-20T04:26:37.820Z,83.86
2019-04-20T04:29:19.883Z,83.79
2019-04-20T04:31:45.508Z,84.05
2019-04-20T04:34:12.464Z,83.90
2019-04-20T04:36:44.573Z,84.13
2019-04-20T04:39:22.814Z,83.94
2019-04-20T04:41:55.976Z,84.38
2019-04-20T04:44:11.237Z,83.85
2019-04-20T04:46:29.238Z,83.99
2019-04-20T04:49:10.567Z,84.52
2019-04-20T04:51:42.454Z,84.59
2019-04-20T04:54:12.882Z,84.29
2019-04-20T04:56:33.553Z,84.29
2019-04-20T04:59:02.850Z,84.85
2019-04-20T05:01:35.242Z,84.85
2019-04-20T05:04:24.762Z,84.89
2019-04-20T05:06:52.193Z,84.77
2019-04-20T05:09:09.893Z,85.24
2019-04-20T05:11:36.700Z,85.24
2019-04-20T05:14:10.632Z,84.64
2019-04-20T05:16:49.956Z,84.52
2019-04-20T05:19:29.767Z,84.58
2019-04-20T05:22:15.948Z,85.05
2019-04-20T05:25:03.496Z,84.94
2019-04-20T05:27:47.923Z,84.94
2019-04-20T05:29:57.000Z,85.33
2019-04-20T05:32:36.140Z,85.18
2019-04-20T05:35:25.484Z,84.58
2019-04-20T05:37:53.708Z,84.39
2019-04-20T05:40:22.336Z,84.05
2019-04-20T05:43:01.937Z,84.33
2019-04-20T05:45:24.883Z,83.13
2019-04-20T05:47:59.122Z,81.04
2019-04-20T05:50:38.551Z,81.04
2019-04-20T05:53:07.473Z,82.79
2019-04-20T05:55:39.086Z,82.06
2019-04-20T05:58:14.549Z,82.06
2019-04-20T06:00:43.583Z,81.98
2019-04-20T06:03:05.519Z,81.91
2019-04-20T06:05:48.769Z,81.91
2019-04-20T06:08:15.313Z,82.41
2019-04-20T06:10:45.268Z,82.03
2019-04-20T06:13:27.849Z,82.03
2019-04-20T06:16:09.000Z,79.80
2019-04-20T06:19:18.245Z,78.82
2019-04-20T06:21:45.164Z,78.45
2019-04-20T06:24:18.315Z,78.45
2019-04-20T06:27:03.196Z,77.41
2019-04-20T06:29:26.333Z,76.66
2019-04-20T06:32:08.657Z,74.86
2019-04-20T06:34:41.652Z,73.90
2019-04-20T06:37:06.787Z,72.12
2019-04-20T06:42:19.331Z,70.88
2019-04-20T06:44:41.308Z,70.74
2019-04-20T06:47:24.793Z,70.40
2019-04-20T06:49:38.109Z,71.48
2019-04-20T06:52:42.177Z,71.48
2019-04-20T06:55:14.120Z,69.35
2019-04-20T06:58:01.203Z,69.35
2019-04-20T07:00:30.819Z,66.70
2019-04-20T07:02:52.966Z,66.82
2019-04-20T07:05:22.121Z,66.82
2019-04-20T07:07:54.733Z,66.45
2019-04-20T07:10:27.195Z,65.69
2019-04-20T07:12:51.758Z,65.16
2019-04-20T07:15:27.059Z,63.33
2019-04-20T07:20:42.705Z,63.23
2019-04-20T07:23:23.826Z,63.23
2019-04-20T07:25:44.603Z,61.10
2019-04-20T07:28:14.319Z,60.34
2019-04-20T07:30:45.227Z,57.80
2019-04-20T07:33:20.043Z,58.27
2019-04-20T07:35:42.927Z,58.85
2019-04-20T07:40:44.088Z,55.80
2019-04-20T07:43:14.652Z,55.80
2019-04-20T07:45:41.556Z,55.18
2019-04-20T07:48:29.569Z,52.83
2019-04-20T07:50:43.190Z,52.14
2019-04-20T07:53:18.280Z,53.23
2019-04-20T07:55:53.963Z,50.66
2019-04-20T07:58:15.545Z,50.66
2019-04-20T08:01:04.223Z,50.74
2019-04-20T08:03:57.002Z,50.83
2019-04-20T08:06:20.068Z,49.02
2019-04-20T08:08:57.254Z,49.02
2019-04-20T08:11:36.752Z,48.56
2019-04-20T08:14:12.835Z,48.56
2019-04-20T08:19:07.923Z,44.38
2019-04-20T08:21:40.507Z,45.79
2019-04-20T08:26:26.930Z,40.97
2019-04-20T08:29:02.491Z,43.34
2019-04-20T08:32:08.779Z,43.06
2019-04-20T08:34:42.039Z,40.21
2019-04-20T08:37:09.837Z,40.66
2019-04-20T08:39:52.159Z,38.68
2019-04-20T08:42:11.715Z,38.88
2019-04-20T08:45:02.976Z,39.63
2019-04-20T08:47:27.885Z,38.55
2019-04-20T08:50:19.309Z,39.99
2019-04-20T08:53:07.184Z,42.57
2019-04-20T08:55:10.560Z,38.78
2019-04-20T08:57:26.911Z,41.38
2019-04-20T08:59:59.581Z,37.57
2019-04-20T09:02:28.085Z,42.12
2019-04-20T09:05:03.194Z,42.08
2019-04-20T09:07:31.554Z,42.09
2019-04-20T09:10:25.330Z,42.94
2019-04-20T09:12:45.282Z,41.95
2019-04-20T09:15:01.604Z,41.95
2019-04-20T09:17:44.950Z,39.30
2019-04-20T09:20:14.692Z,39.76
2019-04-20T09:23:02.183Z,39.76
2019-04-20T09:25:48.673Z,35.98
2019-04-20T09:28:19.430Z,35.98
2019-04-20T09:30:50.478Z,36.87
2019-04-20T09:34:02.750Z,33.57
2019-04-20T09:36:38.603Z,31.37
2019-04-20T09:39:18.602Z,29.37
2019-04-20T09:42:00.359Z,30.71
2019-04-20T09:44:24.558Z,28.58
2019-04-20T09:46:56.938Z,27.50
2019-04-20T09:49:38.748Z,27.50
2019-04-20T09:52:11.233Z,28.75
2019-04-20T09:54:48.171Z,25.97
2019-04-20T09:57:19.711Z,27.72
2019-04-20T09:59:51.306Z,26.00
2019-04-20T10:02:06.823Z,24.52
2019-04-20T10:04:31.250Z,25.51
2019-04-20T10:07:08.889Z,25.51
2019-04-20T10:09:37.502Z,25.16
2019-04-20T10:12:03.605Z,26.62
2019-04-20T10:14:35.215Z,24.38
2019-04-20T10:17:05.682Z,24.09
2019-04-20T10:19:38.173Z,24.94
2019-04-20T10:22:08.549Z,24.94
2019-04-20T10:24:38.861Z,24.29
2019-04-20T10:27:08.394Z,24.29
2019-04-20T10:29:37.638Z,25.06
2019-04-20T10:32:11.071Z,24.10
2019-04-20T10:34:38.839Z,24.56
2019-04-20T10:37:11.487Z,25.08
2019-04-20T10:39:42.642Z,25.14
2019-04-20T10:42:12.233Z,24.00
2019-04-20T10:44:41.468Z,24.55
2019-04-20T10:47:11.378Z,24.12
2019-04-20T10:49:40.839Z,23.86
2019-04-20T10:52:10.151Z,23.26
2019-04-20T10:54:40.420Z,24.05
2019-04-20T10:57:09.887Z,23.59
2019-04-20T10:59:39.423Z,24.61
2019-04-20T11:02:09.921Z,23.90
2019-04-20T11:04:39.311Z,24.87
2019-04-20T11:07:08.534Z,25.25
2019-04-20T11:09:38.714Z,25.25
2019-04-20T11:12:08.460Z,24.33
2019-04-20T11:14:41.889Z,23.61
2019-04-20T11:17:08.716Z,23.40
2019-04-20T11:19:39.114Z,24.70
2019-04-20T11:22:08.598Z,24.36
2019-04-20T11:24:38.566Z,24.36
2019-04-20T11:27:08.070Z,23.66
2019-04-20T11:29:38.013Z,24.94
2019-04-20T11:32:07.442Z,23.25
2019-04-20T11:34:39.915Z,23.94
2019-04-20T11:37:08.819Z,23.20
2019-04-20T11:39:39.134Z,23.20
2019-04-20T11:42:09.859Z,23.24
2019-04-20T11:44:39.203Z,22.00
2019-04-20T11:47:08.579Z,22.80
2019-04-20T11:49:37.880Z,22.28
2019-04-20T11:52:07.769Z,23.81
2019-04-20T11:54:37.446Z,22.31
2019-04-20T11:57:07.125Z,22.75
2019-04-20T11:59:37.134Z,22.75
2019-04-20T12:02:44.298Z,25.23
2019-04-20T12:05:24.952Z,23.87
2019-04-20T12:07:56.649Z,21.99
2019-04-20T12:10:27.622Z,21.33
2019-04-20T12:12:57.534Z,21.92
2019-04-20T12:15:26.889Z,20.68
2019-04-20T12:17:55.994Z,20.65
2019-04-20T12:23:00.307Z,21.26
2019-04-20T12:25:32.877Z,21.26
2019-04-20T12:28:02.336Z,21.25
2019-04-20T12:30:31.601Z,21.33
2019-04-20T12:33:02.183Z,21.71
2019-04-20T12:35:32.032Z,20.60
2019-04-20T12:38:03.073Z,19.64
2019-04-20T12:40:32.474Z,19.93
2019-04-20T12:43:01.525Z,21.79
2019-04-20T12:45:31.517Z,20.83
2019-04-20T12:48:01.765Z,21.38
2019-04-20T12:50:39.541Z,21.38
2019-04-20T12:53:10.703Z,21.80
2019-04-20T12:55:40.892Z,22.25
2019-04-20T12:58:10.559Z,21.68
2019-04-20T13:00:45.938Z,20.88
2019-04-20T13:03:15.293Z,20.88
2019-04-20T13:05:45.853Z,21.63
2019-04-20T13:08:23.306Z,21.63
2019-04-20T13:10:54.607Z,21.94
2019-04-20T13:13:44.228Z,21.85
2019-04-20T13:16:32.368Z,23.23
2019-04-20T13:19:03.732Z,23.23
2019-04-20T13:21:33.007Z,21.51
2019-04-20T13:24:03.250Z,23.28
2019-04-20T13:26:33.260Z,23.28
2019-04-20T13:29:02.655Z,21.83
2019-04-20T13:31:31.727Z,21.43
2019-04-20T13:34:01.504Z,20.73
2019-04-20T13:36:32.439Z,23.07
2019-04-20T13:39:01.882Z,22.46
2019-04-20T13:41:31.720Z,22.17
2019-04-20T13:44:03.124Z,22.57
2019-04-20T13:46:33.073Z,21.38
2019-04-20T13:49:02.973Z,22.57
2019-04-20T13:51:32.851Z,22.18
2019-04-20T13:54:07.405Z,22.35
2019-04-20T13:56:33.990Z,23.33
2019-04-20T13:59:27.875Z,21.80
2019-04-20T14:02:05.090Z,22.00
2019-04-20T14:04:38.929Z,21.27
2019-04-20T14:07:09.377Z,20.22
2019-04-20T14:09:39.575Z,19.79
2019-04-20T14:12:16.200Z,21.66
2019-04-20T14:14:41.265Z,20.56
2019-04-20T14:17:10.890Z,19.97
2019-04-20T14:19:41.106Z,21.68
2019-04-20T14:22:10.452Z,21.68
2019-04-20T14:24:40.357Z,21.93
2019-04-20T14:27:10.568Z,21.04
2019-04-20T14:29:41.193Z,21.41
2019-04-20T14:32:11.982Z,22.22
2019-04-20T14:34:42.865Z,23.18
2019-04-20T14:37:12.929Z,21.40
2019-04-20T14:39:43.498Z,21.07
2019-04-20T14:42:23.207Z,21.07
2019-04-20T14:44:43.777Z,22.89
2019-04-20T14:47:13.891Z,22.64
2019-04-20T14:49:44.627Z,22.64
2019-04-20T14:52:15.530Z,22.68
2019-04-20T14:54:45.653Z,22.24
2019-04-20T14:57:15.007Z,22.78
2019-04-20T14:59:51.612Z,22.43
2019-04-20T15:02:22.662Z,22.35
2019-04-20T15:04:52.761Z,22.35
2019-04-20T15:07:22.612Z,22.89
2019-04-20T15:09:55.182Z,22.70
2019-04-20T15:12:36.561Z,21.88
2019-04-20T15:14:56.505Z,22.31
2019-04-20T15:17:35.262Z,22.31
2019-04-20T15:20:23.695Z,22.25
2019-04-20T15:22:55.349Z,22.25
2019-04-20T15:25:25.472Z,23.34
2019-04-20T15:27:54.713Z,23.97
2019-04-20T15:30:24.999Z,23.35
2019-04-20T15:32:54.645Z,23.16
2019-04-20T15:35:24.772Z,22.96
2019-04-20T15:37:55.319Z,23.57
2019-04-20T15:40:24.711Z,23.40
2019-04-20T15:43:01.058Z,22.08
2019-04-20T15:45:25.695Z,24.62
2019-04-20T15:47:56.207Z,23.93
2019-04-20T15:50:25.719Z,23.69
2019-04-20T15:52:58.390Z,24.96
2019-04-20T15:55:32.030Z,24.90
2019-04-20T15:57:57.661Z,24.98
2019-04-20T16:00:28.563Z,24.65
2019-04-20T16:03:09.606Z,24.46
2019-04-20T16:05:42.996Z,24.16
2019-04-20T16:08:30.351Z,24.87
2019-04-20T16:10:59.653Z,24.61
2019-04-20T16:13:36.126Z,23.92
2019-04-20T16:15:59.775Z,24.11
2019-04-20T16:18:30.597Z,23.71
2019-04-20T16:21:07.996Z,25.83
2019-04-20T16:23:42.990Z,24.64
2019-04-20T16:26:25.895Z,24.62
2019-04-20T16:28:57.678Z,25.09
2019-04-20T16:31:26.929Z,24.90
2019-04-20T16:33:58.517Z,24.15
2019-04-20T16:36:28.148Z,25.21
2019-04-20T16:38:57.654Z,25.21
2019-04-20T16:41:26.846Z,26.43
2019-04-20T16:43:57.403Z,25.26
2019-04-20T16:46:28.012Z,26.00
2019-04-20T16:48:57.322Z,25.51
2019-04-20T16:51:27.012Z,25.51
2019-04-20T16:53:59.675Z,25.09
2019-04-20T16:56:28.824Z,26.05
2019-04-20T16:59:05.590Z,27.06
2019-04-20T17:01:29.700Z,25.90
2019-04-20T17:04:07.011Z,25.90
2019-04-20T17:06:31.996Z,26.82
2019-04-20T17:09:02.992Z,26.35
2019-04-20T17:11:33.971Z,26.48
2019-04-20T17:14:03.684Z,27.06
2019-04-20T17:16:33.590Z,26.76
2019-04-20T17:19:03.825Z,26.79
2019-04-20T17:21:40.271Z,27.21
2019-04-20T17:24:11.343Z,27.17
2019-04-20T17:26:50.747Z,26.91
2019-04-20T17:29:26.180Z,27.02
2019-04-20T17:32:27.466Z,27.02
2019-04-20T17:37:56.326Z,27.20
2019-04-20T17:40:46.123Z,27.69
2019-04-20T17:43:06.558Z,27.69
2019-04-20T17:45:41.558Z,28.67
2019-04-20T17:48:17.412Z,28.69
2019-04-20T17:50:56.157Z,29.07
2019-04-20T17:53:29.345Z,29.24
2019-04-20T17:55:53.108Z,29.90
2019-04-20T17:58:27.973Z,28.94
2019-04-20T18:01:22.101Z,28.77
2019-04-20T18:04:24.487Z,31.13
2019-04-20T18:06:27.257Z,30.75
2019-04-20T18:09:00.418Z,29.92
2019-04-20T18:11:20.110Z,30.70
2019-04-20T18:13:46.766Z,30.69
2019-04-20T18:16:45.337Z,29.87
2019-04-20T18:19:08.476Z,30.71
2019-04-20T18:21:40.152Z,32.02
2019-04-20T18:24:14.518Z,31.08
2019-04-20T18:26:59.166Z,31.83
2019-04-20T18:29:32.559Z,33.08
2019-04-20T18:31:55.933Z,32.64
2019-04-20T18:34:36.328Z,32.64
2019-04-20T18:37:10.700Z,32.54
2019-04-20T18:39:46.265Z,33.73
2019-04-20T18:42:18.590Z,33.43
2019-04-20T18:45:00.958Z,33.14
2019-04-20T18:47:33.123Z,33.46
2019-04-20T18:49:50.508Z,34.59
2019-04-20T18:52:14.037Z,34.53
2019-04-20T18:54:47.455Z,34.34
2019-04-20T18:57:21.804Z,35.81
2019-04-20T18:59:52.265Z,33.45
2019-04-20T19:02:23.818Z,35.01
2019-04-20T19:04:50.087Z,35.01
2019-04-20T19:07:19.789Z,35.78
2019-04-20T19:09:53.275Z,35.82
2019-04-20T19:12:30.100Z,35.82
2019-04-20T19:15:31.697Z,36.24
2019-04-20T19:18:05.720Z,38.07
2019-04-20T19:20:33.035Z,39.41
2019-04-20T19:23:02.406Z,39.07
2019-04-20T19:25:36.766Z,39.31
2019-04-20T19:28:04.698Z,37.13
2019-04-20T19:30:40.704Z,38.52
2019-04-20T19:33:19.157Z,38.52
2019-04-20T19:35:48.136Z,40.01
2019-04-20T19:38:12.598Z,40.06
2019-04-20T19:40:47.923Z,40.42
2019-04-20T19:43:20.813Z,40.45
2019-04-20T19:46:24.359Z,40.94
2019-04-20T19:48:24.079Z,41.34
2019-04-20T19:51:05.541Z,41.33
2019-04-20T19:53:36.674Z,42.51
2019-04-20T19:56:00.066Z,43.20
2019-04-20T19:58:33.195Z,42.58
2019-04-20T20:00:53.652Z,42.58
2019-04-20T20:03:22.073Z,42.56
2019-04-20T20:05:53.852Z,41.43
2019-04-20T20:08:27.245Z,42.07
2019-04-20T20:10:54.809Z,39.77
2019-04-20T20:13:34.599Z,39.95
2019-04-20T20:16:02.465Z,39.95
2019-04-20T20:18:46.565Z,39.00
2019-04-20T20:21:15.198Z,39.00
2019-04-20T20:23:34.180Z,39.78
2019-04-20T20:26:07.179Z,40.31
2019-04-20T20:28:43.671Z,41.05
2019-04-20T20:31:17.015Z,40.74
2019-04-20T20:33:53.439Z,41.32
2019-04-20T20:36:12.759Z,40.92
2019-04-20T20:38:45.762Z,41.86
2019-04-20T20:41:22.899Z,42.33
2019-04-20T20:43:58.356Z,41.38
2019-04-20T20:46:25.480Z,41.38
2019-04-20T20:49:04.849Z,41.96
2019-04-20T20:51:39.157Z,41.56
2019-04-20T20:53:56.564Z,41.91
2019-04-20T20:56:24.481Z,42.42
2019-04-20T20:58:59.484Z,43.15
2019-04-20T21:01:25.394Z,42.22
2019-04-20T21:03:53.098Z,42.32
2019-04-20T21:06:22.411Z,41.90
2019-04-20T21:08:55.724Z,42.97
2019-04-20T21:11:27.504Z,42.97
2019-04-20T21:13:54.604Z,42.49
2019-04-20T21:16:33.402Z,43.71
2019-04-20T21:19:17.201Z,43.99
2019-04-20T21:25:40.876Z,44.48
2019-04-20T21:28:06.887Z,44.85
2019-04-20T21:30:41.907Z,44.44
2019-04-20T21:33:20.725Z,45.03
2019-04-20T21:35:52.124Z,45.45
2019-04-20T21:38:23.148Z,45.45
2019-04-20T21:41:02.121Z,46.42
2019-04-20T21:43:27.815Z,45.72
2019-04-20T21:45:59.464Z,45.72
2019-04-20T21:48:38.047Z,46.58
2019-04-20T21:51:08.625Z,46.06
2019-04-20T21:53:57.899Z,45.80
2019-04-20T21:56:30.012Z,46.38
2019-04-20T21:59:02.474Z,46.22
2019-04-20T22:01:37.517Z,45.70
2019-04-20T22:04:02.439Z,45.91
2019-04-20T22:06:32.097Z,45.91
2019-04-20T22:09:04.040Z,45.59
2019-04-20T22:11:33.785Z,45.50
2019-04-20T22:14:09.471Z,46.64
2019-04-20T22:16:40.979Z,45.71
2019-04-20T22:19:22.407Z,47.07
2019-04-20T22:21:50.109Z,47.17
2019-04-20T22:24:25.327Z,46.34
2019-04-20T22:26:51.605Z,47.94
2019-04-20T22:29:08.229Z,47.94
2019-04-20T22:31:38.253Z,47.67
2019-04-20T22:34:19.253Z,48.46
2019-04-20T22:36:48.214Z,48.86
2019-04-20T22:39:24.561Z,48.59
2019-04-20T22:42:01.127Z,48.87
2019-04-20T22:44:28.342Z,49.71
2019-04-20T22:46:56.630Z,49.65
2019-04-20T22:49:39.994Z,50.58
2019-04-20T22:52:06.397Z,50.52
2019-04-20T22:54:42.308Z,50.65
2019-04-20T22:57:08.743Z,50.33
2019-04-20T22:59:38.513Z,50.76
2019-04-20T23:02:02.349Z,50.76
2019-04-20T23:04:31.043Z,50.90
2019-04-20T23:07:00.970Z,50.90
2019-04-20T23:09:34.194Z,51.59
2019-04-20T23:12:09.190Z,52.75
2019-04-20T23:14:34.286Z,52.89
2019-04-20T23:17:04.279Z,53.50
2019-04-20T23:19:41.659Z,53.67
2019-04-20T23:22:13.365Z,54.34
2019-04-20T23:24:41.465Z,54.73
2019-04-20T23:27:17.045Z,54.73
2019-04-20T23:29:42.182Z,55.74
2019-04-20T23:32:14.534Z,56.27
2019-04-20T23:34:44.641Z,56.27
2019-04-20T23:37:20.543Z,56.64
2019-04-20T23:39:47.258Z,55.30
2019-04-20T23:42:19.905Z,55.99
2019-04-20T23:45:05.724Z,55.99
2019-04-20T23:47:46.667Z,56.57
2019-04-20T23:50:34.044Z,57.02
2019-04-20T23:53:05.508Z,56.40
2019-04-20T23:55:17.538Z,57.51
2019-04-20T23:57:54.767Z,56.42
